sensor_id;sensor_type;location;lat;lon;timestamp;P1;durP1;ratioP1;P2;durP2;ratioP2
34960;SDS011;30789;52.030;7.110;2023-04-08T00:01:39;6.50;;;4.60;;
34960;SDS011;30789;52.030;7.110;2023-04-08T00:04:06;7.18;;;4.60;;
34960;SDS011;30789;52.030;7.110;2023-04-08T00:06:33;7.80;;;5.47;;
34960;SDS011;30789;52.030;7.110;2023-04-08T00:09:02;7.18;;;6.03;;
34960;SDS011;30789;52.030;7.110;2023-04-08T00:11:29;7.57;;;5.75;;
34960;SDS011;30789;52.030;7.110;2023-04-08T00:13:55;8.88;;;6.80;;
34960;SDS011;30789;52.030;7.110;2023-04-08T00:16:22;8.65;;;7.03;;
34960;SDS011;30789;52.030;7.110;2023-04-08T00:18:48;9.73;;;7.15;;
34960;SDS011;30789;52.030;7.110;2023-04-08T00:21:15;9.32;;;7.45;;
34960;SDS011;30789;52.030;7.110;2023-04-08T00:23:44;10.20;;;7.60;;
34960;SDS011;30789;52.030;7.110;2023-04-08T00:26:12;12.93;;;8.75;;
34960;SDS011;30789;52.030;7.110;2023-04-08T00:28:39;10.95;;;8.02;;
34960;SDS011;30789;52.030;7.110;2023-04-08T00:31:06;11.32;;;7.90;;
34960;SDS011;30789;52.030;7.110;2023-04-08T00:33:33;13.15;;;8.32;;
34960;SDS011;30789;52.030;7.110;2023-04-08T00:36:00;12.20;;;9.23;;
34960;SDS011;30789;52.030;7.110;2023-04-08T00:38:27;14.52;;;9.40;;
34960;SDS011;30789;52.030;7.110;2023-04-08T00:40:53;14.13;;;9.48;;
34960;SDS011;30789;52.030;7.110;2023-04-08T00:43:22;11.77;;;8.88;;
34960;SDS011;30789;52.030;7.110;2023-04-08T00:45:48;12.48;;;8.88;;
34960;SDS011;30789;52.030;7.110;2023-04-08T00:48:15;15.25;;;8.98;;
34960;SDS011;30789;52.030;7.110;2023-04-08T00:50:41;12.00;;;9.02;;
34960;SDS011;30789;52.030;7.110;2023-04-08T00:53:10;11.68;;;9.00;;
34960;SDS011;30789;52.030;7.110;2023-04-08T00:55:37;12.57;;;8.27;;
34960;SDS011;30789;52.030;7.110;2023-04-08T00:58:04;12.73;;;8.68;;
34960;SDS011;30789;52.030;7.110;2023-04-08T01:00:32;11.13;;;8.43;;
34960;SDS011;30789;52.030;7.110;2023-04-08T01:03:03;15.45;;;9.27;;
34960;SDS011;30789;52.030;7.110;2023-04-08T01:05:35;13.07;;;9.60;;
34960;SDS011;30789;52.030;7.110;2023-04-08T01:08:08;13.15;;;9.23;;
34960;SDS011;30789;52.030;7.110;2023-04-08T01:10:37;14.10;;;8.55;;
34960;SDS011;30789;52.030;7.110;2023-04-08T01:13:07;13.57;;;8.55;;
34960;SDS011;30789;52.030;7.110;2023-04-08T01:15:37;11.73;;;8.93;;
34960;SDS011;30789;52.030;7.110;2023-04-08T01:18:08;12.15;;;8.90;;
34960;SDS011;30789;52.030;7.110;2023-04-08T01:20:37;10.80;;;8.25;;
34960;SDS011;30789;52.030;7.110;2023-04-08T01:23:08;12.38;;;8.68;;
34960;SDS011;30789;52.030;7.110;2023-04-08T01:25:44;12.43;;;8.95;;
34960;SDS011;30789;52.030;7.110;2023-04-08T01:28:12;12.82;;;8.88;;
34960;SDS011;30789;52.030;7.110;2023-04-08T01:30:41;11.63;;;9.02;;
34960;SDS011;30789;52.030;7.110;2023-04-08T01:33:10;13.32;;;8.95;;
34960;SDS011;30789;52.030;7.110;2023-04-08T01:35:38;13.20;;;9.05;;
34960;SDS011;30789;52.030;7.110;2023-04-08T01:38:05;11.40;;;8.70;;
34960;SDS011;30789;52.030;7.110;2023-04-08T01:40:34;13.77;;;8.70;;
34960;SDS011;30789;52.030;7.110;2023-04-08T01:43:04;13.77;;;9.45;;
34960;SDS011;30789;52.030;7.110;2023-04-08T01:45:33;11.52;;;8.98;;
34960;SDS011;30789;52.030;7.110;2023-04-08T01:48:00;14.48;;;9.73;;
34960;SDS011;30789;52.030;7.110;2023-04-08T01:50:27;13.05;;;9.73;;
34960;SDS011;30789;52.030;7.110;2023-04-08T01:52:55;12.77;;;9.38;;
34960;SDS011;30789;52.030;7.110;2023-04-08T01:55:24;12.48;;;9.40;;
34960;SDS011;30789;52.030;7.110;2023-04-08T01:57:53;14.45;;;8.90;;
34960;SDS011;30789;52.030;7.110;2023-04-08T02:00:27;13.50;;;9.93;;
34960;SDS011;30789;52.030;7.110;2023-04-08T02:02:54;17.20;;;9.90;;
34960;SDS011;30789;52.030;7.110;2023-04-08T02:05:23;14.23;;;9.45;;
34960;SDS011;30789;52.030;7.110;2023-04-08T02:07:49;15.35;;;9.43;;
34960;SDS011;30789;52.030;7.110;2023-04-08T02:10:16;14.52;;;9.55;;
34960;SDS011;30789;52.030;7.110;2023-04-08T02:12:43;12.02;;;8.77;;
34960;SDS011;30789;52.030;7.110;2023-04-08T02:15:10;13.93;;;8.73;;
34960;SDS011;30789;52.030;7.110;2023-04-08T02:17:40;13.98;;;8.40;;
34960;SDS011;30789;52.030;7.110;2023-04-08T02:20:10;13.48;;;9.50;;
34960;SDS011;30789;52.030;7.110;2023-04-08T02:25:12;16.83;;;9.00;;
34960;SDS011;30789;52.030;7.110;2023-04-08T02:27:41;11.10;;;7.90;;
34960;SDS011;30789;52.030;7.110;2023-04-08T02:30:09;12.07;;;8.65;;
34960;SDS011;30789;52.030;7.110;2023-04-08T02:32:37;11.55;;;8.93;;
34960;SDS011;30789;52.030;7.110;2023-04-08T02:35:06;15.13;;;8.80;;
34960;SDS011;30789;52.030;7.110;2023-04-08T02:37:34;15.48;;;9.77;;
34960;SDS011;30789;52.030;7.110;2023-04-08T02:40:01;18.38;;;9.50;;
34960;SDS011;30789;52.030;7.110;2023-04-08T02:42:28;17.35;;;10.60;;
34960;SDS011;30789;52.030;7.110;2023-04-08T02:44:55;23.27;;;11.57;;
34960;SDS011;30789;52.030;7.110;2023-04-08T02:47:22;16.00;;;9.70;;
34960;SDS011;30789;52.030;7.110;2023-04-08T02:49:49;15.85;;;9.63;;
34960;SDS011;30789;52.030;7.110;2023-04-08T02:52:19;13.60;;;9.27;;
34960;SDS011;30789;52.030;7.110;2023-04-08T02:54:46;15.70;;;9.18;;
34960;SDS011;30789;52.030;7.110;2023-04-08T02:57:12;15.05;;;9.40;;
34960;SDS011;30789;52.030;7.110;2023-04-08T02:59:41;10.95;;;8.70;;
34960;SDS011;30789;52.030;7.110;2023-04-08T03:02:07;13.23;;;9.45;;
34960;SDS011;30789;52.030;7.110;2023-04-08T03:04:34;12.95;;;8.98;;
34960;SDS011;30789;52.030;7.110;2023-04-08T03:07:00;12.07;;;8.68;;
34960;SDS011;30789;52.030;7.110;2023-04-08T03:09:28;12.77;;;8.93;;
34960;SDS011;30789;52.030;7.110;2023-04-08T03:11:55;11.90;;;8.68;;
34960;SDS011;30789;52.030;7.110;2023-04-08T03:14:22;10.15;;;8.40;;
34960;SDS011;30789;52.030;7.110;2023-04-08T03:16:48;13.43;;;9.32;;
34960;SDS011;30789;52.030;7.110;2023-04-08T03:19:15;13.13;;;9.27;;
34960;SDS011;30789;52.030;7.110;2023-04-08T03:21:41;13.25;;;8.70;;
34960;SDS011;30789;52.030;7.110;2023-04-08T03:24:08;13.27;;;10.05;;
34960;SDS011;30789;52.030;7.110;2023-04-08T03:26:36;15.95;;;9.60;;
34960;SDS011;30789;52.030;7.110;2023-04-08T03:29:03;17.23;;;9.50;;
34960;SDS011;30789;52.030;7.110;2023-04-08T03:31:30;13.50;;;9.70;;
34960;SDS011;30789;52.030;7.110;2023-04-08T03:33:57;11.40;;;9.10;;
34960;SDS011;30789;52.030;7.110;2023-04-08T03:36:24;13.95;;;9.35;;
34960;SDS011;30789;52.030;7.110;2023-04-08T03:38:50;12.15;;;8.70;;
34960;SDS011;30789;52.030;7.110;2023-04-08T03:41:17;13.98;;;9.52;;
34960;SDS011;30789;52.030;7.110;2023-04-08T03:43:45;15.02;;;9.75;;
34960;SDS011;30789;52.030;7.110;2023-04-08T03:46:11;11.60;;;7.72;;
34960;SDS011;30789;52.030;7.110;2023-04-08T03:48:38;13.35;;;8.07;;
34960;SDS011;30789;52.030;7.110;2023-04-08T03:51:05;12.40;;;8.60;;
34960;SDS011;30789;52.030;7.110;2023-04-08T03:53:31;9.82;;;8.05;;
34960;SDS011;30789;52.030;7.110;2023-04-08T03:55:58;10.30;;;7.32;;
34960;SDS011;30789;52.030;7.110;2023-04-08T03:58:26;11.10;;;7.90;;
34960;SDS011;30789;52.030;7.110;2023-04-08T04:00:54;9.40;;;7.35;;
34960;SDS011;30789;52.030;7.110;2023-04-08T04:03:21;12.43;;;7.97;;
34960;SDS011;30789;52.030;7.110;2023-04-08T04:05:47;10.60;;;7.32;;
34960;SDS011;30789;52.030;7.110;2023-04-08T04:08:14;12.55;;;7.88;;
34960;SDS011;30789;52.030;7.110;2023-04-08T04:10:41;12.50;;;8.13;;
34960;SDS011;30789;52.030;7.110;2023-04-08T04:13:07;14.60;;;8.52;;
34960;SDS011;30789;52.030;7.110;2023-04-08T04:15:36;10.57;;;8.05;;
34960;SDS011;30789;52.030;7.110;2023-04-08T04:18:05;11.05;;;7.72;;
34960;SDS011;30789;52.030;7.110;2023-04-08T04:20:31;10.25;;;7.68;;
34960;SDS011;30789;52.030;7.110;2023-04-08T04:22:58;10.63;;;8.20;;
34960;SDS011;30789;52.030;7.110;2023-04-08T04:25:25;11.13;;;7.72;;
34960;SDS011;30789;52.030;7.110;2023-04-08T04:27:51;10.25;;;7.43;;
34960;SDS011;30789;52.030;7.110;2023-04-08T04:30:18;10.20;;;7.20;;
34960;SDS011;30789;52.030;7.110;2023-04-08T04:32:44;11.82;;;7.22;;
34960;SDS011;30789;52.030;7.110;2023-04-08T04:35:12;11.82;;;8.18;;
34960;SDS011;30789;52.030;7.110;2023-04-08T04:37:39;11.88;;;7.55;;
34960;SDS011;30789;52.030;7.110;2023-04-08T04:40:06;9.60;;;6.90;;
34960;SDS011;30789;52.030;7.110;2023-04-08T04:42:33;9.02;;;7.15;;
34960;SDS011;30789;52.030;7.110;2023-04-08T04:45:00;12.95;;;8.23;;
34960;SDS011;30789;52.030;7.110;2023-04-08T04:47:26;12.30;;;7.75;;
34960;SDS011;30789;52.030;7.110;2023-04-08T04:49:53;10.30;;;7.85;;
34960;SDS011;30789;52.030;7.110;2023-04-08T04:52:21;11.63;;;8.30;;
34960;SDS011;30789;52.030;7.110;2023-04-08T04:54:47;12.02;;;7.40;;
34960;SDS011;30789;52.030;7.110;2023-04-08T04:57:14;12.02;;;7.80;;
34960;SDS011;30789;52.030;7.110;2023-04-08T04:59:41;10.82;;;7.38;;
34960;SDS011;30789;52.030;7.110;2023-04-08T05:02:07;12.05;;;7.85;;
34960;SDS011;30789;52.030;7.110;2023-04-08T05:04:34;10.70;;;7.70;;
34960;SDS011;30789;52.030;7.110;2023-04-08T05:07:01;10.20;;;7.78;;
34960;SDS011;30789;52.030;7.110;2023-04-08T05:09:29;12.55;;;7.75;;
34960;SDS011;30789;52.030;7.110;2023-04-08T05:11:55;16.40;;;10.70;;
34960;SDS011;30789;52.030;7.110;2023-04-08T05:14:22;13.20;;;9.75;;
34960;SDS011;30789;52.030;7.110;2023-04-08T05:16:48;12.90;;;9.25;;
34960;SDS011;30789;52.030;7.110;2023-04-08T05:19:15;12.25;;;8.77;;
34960;SDS011;30789;52.030;7.110;2023-04-08T05:21:42;12.68;;;9.40;;
34960;SDS011;30789;52.030;7.110;2023-04-08T05:24:08;13.63;;;9.20;;
34960;SDS011;30789;52.030;7.110;2023-04-08T05:26:37;13.38;;;10.10;;
34960;SDS011;30789;52.030;7.110;2023-04-08T05:29:03;13.68;;;9.07;;
34960;SDS011;30789;52.030;7.110;2023-04-08T05:31:30;13.60;;;9.60;;
34960;SDS011;30789;52.030;7.110;2023-04-08T05:33:56;15.35;;;10.88;;
34960;SDS011;30789;52.030;7.110;2023-04-08T05:36:23;12.02;;;9.45;;
34960;SDS011;30789;52.030;7.110;2023-04-08T05:38:50;12.43;;;9.77;;
34960;SDS011;30789;52.030;7.110;2023-04-08T05:41:17;15.20;;;9.57;;
34960;SDS011;30789;52.030;7.110;2023-04-08T05:43:44;11.90;;;8.70;;
34960;SDS011;30789;52.030;7.110;2023-04-08T05:46:11;10.73;;;8.65;;
34960;SDS011;30789;52.030;7.110;2023-04-08T05:48:37;11.70;;;9.43;;
34960;SDS011;30789;52.030;7.110;2023-04-08T05:51:04;13.68;;;8.38;;
34960;SDS011;30789;52.030;7.110;2023-04-08T05:53:31;11.07;;;8.23;;
34960;SDS011;30789;52.030;7.110;2023-04-08T05:55:57;10.05;;;7.93;;
34960;SDS011;30789;52.030;7.110;2023-04-08T05:58:24;12.63;;;7.93;;
34960;SDS011;30789;52.030;7.110;2023-04-08T06:00:52;10.63;;;8.07;;
34960;SDS011;30789;52.030;7.110;2023-04-08T06:03:19;12.05;;;8.00;;
34960;SDS011;30789;52.030;7.110;2023-04-08T06:05:46;12.70;;;8.02;;
34960;SDS011;30789;52.030;7.110;2023-04-08T06:08:12;11.63;;;7.82;;
34960;SDS011;30789;52.030;7.110;2023-04-08T06:10:39;14.90;;;7.88;;
34960;SDS011;30789;52.030;7.110;2023-04-08T06:13:06;10.93;;;8.20;;
34960;SDS011;30789;52.030;7.110;2023-04-08T06:15:33;10.88;;;8.65;;
34960;SDS011;30789;52.030;7.110;2023-04-08T06:18:01;13.38;;;8.57;;
34960;SDS011;30789;52.030;7.110;2023-04-08T06:20:28;11.82;;;8.30;;
34960;SDS011;30789;52.030;7.110;2023-04-08T06:22:54;15.57;;;8.88;;
34960;SDS011;30789;52.030;7.110;2023-04-08T06:25:21;13.80;;;9.32;;
34960;SDS011;30789;52.030;7.110;2023-04-08T06:27:48;13.30;;;9.05;;
34960;SDS011;30789;52.030;7.110;2023-04-08T06:30:15;14.43;;;7.88;;
34960;SDS011;30789;52.030;7.110;2023-04-08T06:32:42;8.50;;;7.40;;
34960;SDS011;30789;52.030;7.110;2023-04-08T06:35:12;11.07;;;7.55;;
34960;SDS011;30789;52.030;7.110;2023-04-08T06:37:39;9.20;;;7.35;;
34960;SDS011;30789;52.030;7.110;2023-04-08T06:50:38;10.35;;;6.63;;
34960;SDS011;30789;52.030;7.110;2023-04-08T06:55:55;9.50;;;6.65;;
34960;SDS011;30789;52.030;7.110;2023-04-08T06:58:21;10.20;;;6.60;;
34960;SDS011;30789;52.030;7.110;2023-04-08T07:00:48;11.00;;;6.18;;
34960;SDS011;30789;52.030;7.110;2023-04-08T07:03:14;7.95;;;5.85;;
34960;SDS011;30789;52.030;7.110;2023-04-08T07:05:42;7.90;;;6.00;;
34960;SDS011;30789;52.030;7.110;2023-04-08T07:08:09;7.22;;;5.30;;
34960;SDS011;30789;52.030;7.110;2023-04-08T07:10:35;10.30;;;6.00;;
34960;SDS011;30789;52.030;7.110;2023-04-08T07:13:02;9.52;;;6.28;;
34960;SDS011;30789;52.030;7.110;2023-04-08T07:15:28;8.25;;;5.88;;
34960;SDS011;30789;52.030;7.110;2023-04-08T07:17:55;9.15;;;6.15;;
34960;SDS011;30789;52.030;7.110;2023-04-08T07:20:22;8.07;;;6.15;;
34960;SDS011;30789;52.030;7.110;2023-04-08T07:22:51;9.07;;;5.55;;
34960;SDS011;30789;52.030;7.110;2023-04-08T07:25:17;8.60;;;5.55;;
34960;SDS011;30789;52.030;7.110;2023-04-08T07:27:44;7.75;;;5.75;;
34960;SDS011;30789;52.030;7.110;2023-04-08T07:30:11;8.88;;;6.25;;
34960;SDS011;30789;52.030;7.110;2023-04-08T07:32:37;7.97;;;5.65;;
34960;SDS011;30789;52.030;7.110;2023-04-08T07:35:04;8.57;;;6.03;;
34960;SDS011;30789;52.030;7.110;2023-04-08T07:37:31;11.35;;;6.40;;
34960;SDS011;30789;52.030;7.110;2023-04-08T07:39:59;8.52;;;5.93;;
34960;SDS011;30789;52.030;7.110;2023-04-08T07:42:26;7.68;;;5.75;;
34960;SDS011;30789;52.030;7.110;2023-04-08T07:44:53;7.45;;;6.05;;
34960;SDS011;30789;52.030;7.110;2023-04-08T07:47:20;7.25;;;5.22;;
34960;SDS011;30789;52.030;7.110;2023-04-08T07:49:47;8.23;;;5.68;;
34960;SDS011;30789;52.030;7.110;2023-04-08T07:52:13;8.10;;;5.78;;
34960;SDS011;30789;52.030;7.110;2023-04-08T07:54:40;10.18;;;6.53;;
34960;SDS011;30789;52.030;7.110;2023-04-08T07:57:08;7.38;;;5.85;;
34960;SDS011;30789;52.030;7.110;2023-04-08T07:59:34;7.55;;;5.82;;
34960;SDS011;30789;52.030;7.110;2023-04-08T08:02:01;6.93;;;5.90;;
34960;SDS011;30789;52.030;7.110;2023-04-08T08:04:28;10.15;;;6.43;;
34960;SDS011;30789;52.030;7.110;2023-04-08T08:06:54;6.88;;;5.95;;
34960;SDS011;30789;52.030;7.110;2023-04-08T08:09:21;8.95;;;5.75;;
34960;SDS011;30789;52.030;7.110;2023-04-08T08:11:47;9.48;;;6.00;;
34960;SDS011;30789;52.030;7.110;2023-04-08T08:14:15;7.57;;;6.28;;
34960;SDS011;30789;52.030;7.110;2023-04-08T08:16:42;10.27;;;5.55;;
34960;SDS011;30789;52.030;7.110;2023-04-08T08:19:08;9.52;;;6.20;;
34960;SDS011;30789;52.030;7.110;2023-04-08T08:21:36;9.70;;;6.32;;
34960;SDS011;30789;52.030;7.110;2023-04-08T08:24:03;9.23;;;6.72;;
34960;SDS011;30789;52.030;7.110;2023-04-08T08:26:30;9.80;;;6.20;;
34960;SDS011;30789;52.030;7.110;2023-04-08T08:28:57;9.77;;;6.78;;
34960;SDS011;30789;52.030;7.110;2023-04-08T08:31:24;7.75;;;6.05;;
34960;SDS011;30789;52.030;7.110;2023-04-08T08:33:51;10.07;;;6.32;;
34960;SDS011;30789;52.030;7.110;2023-04-08T08:36:17;12.52;;;6.82;;
34960;SDS011;30789;52.030;7.110;2023-04-08T08:38:44;9.27;;;6.57;;
34960;SDS011;30789;52.030;7.110;2023-04-08T08:41:10;12.65;;;7.18;;
34960;SDS011;30789;52.030;7.110;2023-04-08T08:43:37;13.07;;;6.88;;
34960;SDS011;30789;52.030;7.110;2023-04-08T08:46:04;8.50;;;6.25;;
34960;SDS011;30789;52.030;7.110;2023-04-08T08:48:36;8.38;;;6.65;;
34960;SDS011;30789;52.030;7.110;2023-04-08T08:51:06;7.65;;;5.90;;
34960;SDS011;30789;52.030;7.110;2023-04-08T08:53:33;8.40;;;6.13;;
34960;SDS011;30789;52.030;7.110;2023-04-08T08:56:00;11.10;;;6.97;;
34960;SDS011;30789;52.030;7.110;2023-04-08T08:58:26;9.48;;;6.78;;
34960;SDS011;30789;52.030;7.110;2023-04-08T09:00:53;9.93;;;6.32;;
34960;SDS011;30789;52.030;7.110;2023-04-08T09:03:21;10.68;;;6.82;;
34960;SDS011;30789;52.030;7.110;2023-04-08T09:05:51;8.60;;;6.43;;
34960;SDS011;30789;52.030;7.110;2023-04-08T09:08:25;10.18;;;6.25;;
34960;SDS011;30789;52.030;7.110;2023-04-08T09:10:53;9.85;;;7.15;;
34960;SDS011;30789;52.030;7.110;2023-04-08T09:13:20;9.07;;;6.63;;
34960;SDS011;30789;52.030;7.110;2023-04-08T09:16:00;8.07;;;6.35;;
34960;SDS011;30789;52.030;7.110;2023-04-08T09:18:29;10.80;;;6.50;;
34960;SDS011;30789;52.030;7.110;2023-04-08T09:20:57;9.23;;;6.90;;
34960;SDS011;30789;52.030;7.110;2023-04-08T09:23:30;9.15;;;7.53;;
34960;SDS011;30789;52.030;7.110;2023-04-08T09:26:06;8.18;;;7.10;;
34960;SDS011;30789;52.030;7.110;2023-04-08T09:28:33;8.90;;;7.07;;
34960;SDS011;30789;52.030;7.110;2023-04-08T09:31:00;8.63;;;6.97;;
34960;SDS011;30789;52.030;7.110;2023-04-08T09:33:29;8.80;;;6.75;;
34960;SDS011;30789;52.030;7.110;2023-04-08T09:35:57;12.00;;;7.55;;
34960;SDS011;30789;52.030;7.110;2023-04-08T09:38:24;9.43;;;6.95;;
34960;SDS011;30789;52.030;7.110;2023-04-08T09:40:51;10.23;;;7.07;;
34960;SDS011;30789;52.030;7.110;2023-04-08T09:43:18;8.30;;;6.78;;
34960;SDS011;30789;52.030;7.110;2023-04-08T09:45:49;8.82;;;6.85;;
34960;SDS011;30789;52.030;7.110;2023-04-08T09:48:17;9.75;;;6.95;;
34960;SDS011;30789;52.030;7.110;2023-04-08T09:50:48;11.07;;;7.00;;
34960;SDS011;30789;52.030;7.110;2023-04-08T09:53:19;12.27;;;6.60;;
34960;SDS011;30789;52.030;7.110;2023-04-08T09:55:52;10.27;;;6.95;;
34960;SDS011;30789;52.030;7.110;2023-04-08T09:58:24;9.90;;;6.55;;
34960;SDS011;30789;52.030;7.110;2023-04-08T10:00:54;10.60;;;7.38;;
34960;SDS011;30789;52.030;7.110;2023-04-08T10:03:24;12.05;;;7.20;;
34960;SDS011;30789;52.030;7.110;2023-04-08T10:05:54;10.45;;;7.25;;
34960;SDS011;30789;52.030;7.110;2023-04-08T10:08:22;11.95;;;6.80;;
34960;SDS011;30789;52.030;7.110;2023-04-08T10:10:51;9.65;;;6.97;;
34960;SDS011;30789;52.030;7.110;2023-04-08T10:13:18;13.75;;;7.00;;
34960;SDS011;30789;52.030;7.110;2023-04-08T10:15:45;9.43;;;6.88;;
34960;SDS011;30789;52.030;7.110;2023-04-08T10:18:31;8.80;;;6.45;;
34960;SDS011;30789;52.030;7.110;2023-04-08T10:20:58;7.95;;;5.72;;
34960;SDS011;30789;52.030;7.110;2023-04-08T10:26:29;8.23;;;5.70;;
34960;SDS011;30789;52.030;7.110;2023-04-08T10:31:57;7.22;;;5.75;;
34960;SDS011;30789;52.030;7.110;2023-04-08T10:34:25;7.30;;;5.68;;
34960;SDS011;30789;52.030;7.110;2023-04-08T10:36:52;7.10;;;6.03;;
34960;SDS011;30789;52.030;7.110;2023-04-08T10:39:23;8.38;;;6.38;;
34960;SDS011;30789;52.030;7.110;2023-04-08T10:41:50;8.27;;;6.75;;
34960;SDS011;30789;52.030;7.110;2023-04-08T10:44:17;10.50;;;7.47;;
34960;SDS011;30789;52.030;7.110;2023-04-08T10:46:44;9.10;;;6.15;;
34960;SDS011;30789;52.030;7.110;2023-04-08T10:49:11;9.30;;;6.93;;
34960;SDS011;30789;52.030;7.110;2023-04-08T10:51:38;8.50;;;6.00;;
34960;SDS011;30789;52.030;7.110;2023-04-08T10:54:05;9.23;;;6.22;;
34960;SDS011;30789;52.030;7.110;2023-04-08T10:56:35;7.43;;;5.75;;
34960;SDS011;30789;52.030;7.110;2023-04-08T10:59:08;8.73;;;6.50;;
34960;SDS011;30789;52.030;7.110;2023-04-08T11:01:39;10.43;;;7.32;;
34960;SDS011;30789;52.030;7.110;2023-04-08T11:04:10;10.93;;;6.90;;
34960;SDS011;30789;52.030;7.110;2023-04-08T11:06:38;8.95;;;7.05;;
34960;SDS011;30789;52.030;7.110;2023-04-08T11:09:04;14.43;;;8.98;;
34960;SDS011;30789;52.030;7.110;2023-04-08T11:11:31;10.77;;;7.35;;
34960;SDS011;30789;52.030;7.110;2023-04-08T11:13:59;10.77;;;7.60;;
34960;SDS011;30789;52.030;7.110;2023-04-08T11:16:26;9.05;;;6.88;;
34960;SDS011;30789;52.030;7.110;2023-04-08T11:18:54;10.77;;;7.50;;
34960;SDS011;30789;52.030;7.110;2023-04-08T11:21:22;14.32;;;8.05;;
34960;SDS011;30789;52.030;7.110;2023-04-08T11:23:49;9.13;;;7.32;;
34960;SDS011;30789;52.030;7.110;2023-04-08T11:26:16;8.93;;;7.35;;
34960;SDS011;30789;52.030;7.110;2023-04-08T11:28:43;11.75;;;7.57;;
34960;SDS011;30789;52.030;7.110;2023-04-08T11:31:12;10.82;;;7.30;;
34960;SDS011;30789;52.030;7.110;2023-04-08T11:33:43;11.40;;;7.63;;
34960;SDS011;30789;52.030;7.110;2023-04-08T11:36:11;11.20;;;8.10;;
34960;SDS011;30789;52.030;7.110;2023-04-08T11:38:38;12.35;;;8.60;;
34960;SDS011;30789;52.030;7.110;2023-04-08T11:41:05;11.55;;;7.95;;
34960;SDS011;30789;52.030;7.110;2023-04-08T11:43:32;9.98;;;7.55;;
34960;SDS011;30789;52.030;7.110;2023-04-08T11:46:06;10.02;;;7.75;;
34960;SDS011;30789;52.030;7.110;2023-04-08T11:48:35;11.07;;;8.63;;
34960;SDS011;30789;52.030;7.110;2023-04-08T11:51:02;14.25;;;8.98;;
34960;SDS011;30789;52.030;7.110;2023-04-08T11:53:32;14.00;;;9.57;;
34960;SDS011;30789;52.030;7.110;2023-04-08T11:56:14;12.38;;;9.45;;
34960;SDS011;30789;52.030;7.110;2023-04-08T11:58:41;13.02;;;9.02;;
34960;SDS011;30789;52.030;7.110;2023-04-08T12:01:07;12.27;;;8.88;;
34960;SDS011;30789;52.030;7.110;2023-04-08T12:03:35;11.77;;;9.32;;
34960;SDS011;30789;52.030;7.110;2023-04-08T12:06:02;13.95;;;9.85;;
34960;SDS011;30789;52.030;7.110;2023-04-08T12:08:29;14.35;;;10.15;;
34960;SDS011;30789;52.030;7.110;2023-04-08T12:10:56;15.48;;;10.45;;
34960;SDS011;30789;52.030;7.110;2023-04-08T12:13:22;14.45;;;10.27;;
34960;SDS011;30789;52.030;7.110;2023-04-08T12:15:49;13.85;;;9.75;;
34960;SDS011;30789;52.030;7.110;2023-04-08T12:18:15;15.80;;;9.93;;
34960;SDS011;30789;52.030;7.110;2023-04-08T12:20:43;14.73;;;10.13;;
34960;SDS011;30789;52.030;7.110;2023-04-08T12:23:10;13.25;;;9.57;;
34960;SDS011;30789;52.030;7.110;2023-04-08T12:25:36;12.35;;;8.80;;
34960;SDS011;30789;52.030;7.110;2023-04-08T12:28:03;15.27;;;9.80;;
34960;SDS011;30789;52.030;7.110;2023-04-08T12:30:29;12.30;;;8.95;;
34960;SDS011;30789;52.030;7.110;2023-04-08T12:32:56;15.95;;;10.48;;
34960;SDS011;30789;52.030;7.110;2023-04-08T12:35:22;14.43;;;9.35;;
34960;SDS011;30789;52.030;7.110;2023-04-08T12:37:50;12.77;;;8.85;;
34960;SDS011;30789;52.030;7.110;2023-04-08T12:40:16;13.02;;;9.50;;
34960;SDS011;30789;52.030;7.110;2023-04-08T12:42:44;12.57;;;9.45;;
34960;SDS011;30789;52.030;7.110;2023-04-08T12:45:11;14.35;;;9.18;;
34960;SDS011;30789;52.030;7.110;2023-04-08T12:47:37;15.25;;;10.45;;
34960;SDS011;30789;52.030;7.110;2023-04-08T12:50:04;13.82;;;10.35;;
34960;SDS011;30789;52.030;7.110;2023-04-08T12:52:33;17.17;;;11.02;;
34960;SDS011;30789;52.030;7.110;2023-04-08T12:55:01;15.25;;;10.77;;
34960;SDS011;30789;52.030;7.110;2023-04-08T12:57:28;19.02;;;13.05;;
34960;SDS011;30789;52.030;7.110;2023-04-08T12:59:56;17.80;;;12.88;;
34960;SDS011;30789;52.030;7.110;2023-04-08T13:02:22;20.55;;;14.65;;
34960;SDS011;30789;52.030;7.110;2023-04-08T13:04:51;20.77;;;13.90;;
34960;SDS011;30789;52.030;7.110;2023-04-08T13:07:19;22.10;;;13.45;;
34960;SDS011;30789;52.030;7.110;2023-04-08T13:09:45;20.15;;;13.63;;
34960;SDS011;30789;52.030;7.110;2023-04-08T13:12:13;18.45;;;13.20;;
34960;SDS011;30789;52.030;7.110;2023-04-08T13:14:40;20.10;;;13.73;;
34960;SDS011;30789;52.030;7.110;2023-04-08T13:17:06;20.77;;;14.48;;
34960;SDS011;30789;52.030;7.110;2023-04-08T13:19:33;20.50;;;14.02;;
34960;SDS011;30789;52.030;7.110;2023-04-08T13:22:00;19.27;;;13.38;;
34960;SDS011;30789;52.030;7.110;2023-04-08T13:24:26;20.67;;;13.63;;
34960;SDS011;30789;52.030;7.110;2023-04-08T13:26:53;20.52;;;14.45;;
34960;SDS011;30789;52.030;7.110;2023-04-08T13:29:21;22.45;;;13.90;;
34960;SDS011;30789;52.030;7.110;2023-04-08T13:31:47;22.23;;;13.93;;
34960;SDS011;30789;52.030;7.110;2023-04-08T13:34:15;19.30;;;13.52;;
34960;SDS011;30789;52.030;7.110;2023-04-08T13:36:41;19.05;;;13.00;;
34960;SDS011;30789;52.030;7.110;2023-04-08T13:39:08;19.75;;;13.18;;
34960;SDS011;30789;52.030;7.110;2023-04-08T13:41:34;19.73;;;13.23;;
34960;SDS011;30789;52.030;7.110;2023-04-08T13:44:01;23.70;;;15.35;;
34960;SDS011;30789;52.030;7.110;2023-04-08T13:46:29;31.10;;;16.83;;
34960;SDS011;30789;52.030;7.110;2023-04-08T13:48:55;25.48;;;16.10;;
34960;SDS011;30789;52.030;7.110;2023-04-08T13:51:22;21.85;;;14.80;;
34960;SDS011;30789;52.030;7.110;2023-04-08T13:53:48;21.52;;;14.70;;
34960;SDS011;30789;52.030;7.110;2023-04-08T13:56:15;20.50;;;13.80;;
34960;SDS011;30789;52.030;7.110;2023-04-08T13:58:41;23.60;;;13.80;;
34960;SDS011;30789;52.030;7.110;2023-04-08T14:01:08;26.20;;;14.75;;
34960;SDS011;30789;52.030;7.110;2023-04-08T14:03:36;20.60;;;12.82;;
34960;SDS011;30789;52.030;7.110;2023-04-08T14:06:02;17.38;;;11.68;;
34960;SDS011;30789;52.030;7.110;2023-04-08T14:08:29;20.77;;;13.23;;
34960;SDS011;30789;52.030;7.110;2023-04-08T14:10:55;17.80;;;13.02;;
34960;SDS011;30789;52.030;7.110;2023-04-08T14:13:22;18.10;;;12.73;;
34960;SDS011;30789;52.030;7.110;2023-04-08T14:15:48;20.67;;;13.15;;
34960;SDS011;30789;52.030;7.110;2023-04-08T14:18:17;19.52;;;12.07;;
34960;SDS011;30789;52.030;7.110;2023-04-08T14:20:45;19.95;;;12.75;;
34960;SDS011;30789;52.030;7.110;2023-04-08T14:23:12;21.00;;;12.75;;
34960;SDS011;30789;52.030;7.110;2023-04-08T14:25:38;17.50;;;12.55;;
34960;SDS011;30789;52.030;7.110;2023-04-08T14:28:05;16.73;;;11.32;;
34960;SDS011;30789;52.030;7.110;2023-04-08T14:30:32;22.60;;;12.18;;
34960;SDS011;30789;52.030;7.110;2023-04-08T14:32:59;21.35;;;13.68;;
34960;SDS011;30789;52.030;7.110;2023-04-08T14:35:26;23.48;;;14.27;;
34960;SDS011;30789;52.030;7.110;2023-04-08T14:37:54;20.48;;;13.48;;
34960;SDS011;30789;52.030;7.110;2023-04-08T14:40:20;20.75;;;14.15;;
34960;SDS011;30789;52.030;7.110;2023-04-08T14:42:47;22.48;;;13.68;;
34960;SDS011;30789;52.030;7.110;2023-04-08T14:45:14;30.60;;;18.02;;
34960;SDS011;30789;52.030;7.110;2023-04-08T14:47:40;23.65;;;15.05;;
34960;SDS011;30789;52.030;7.110;2023-04-08T14:50:07;21.75;;;15.05;;
34960;SDS011;30789;52.030;7.110;2023-04-08T14:52:34;24.55;;;15.77;;
34960;SDS011;30789;52.030;7.110;2023-04-08T14:55:02;26.27;;;16.65;;
34960;SDS011;30789;52.030;7.110;2023-04-08T14:57:29;30.10;;;15.65;;
34960;SDS011;30789;52.030;7.110;2023-04-08T14:59:56;21.48;;;14.93;;